Time;durP1;ratioP1;P1;durP2;ratioP2;P2;SDS_P1;SDS_P2;PMS_P1;PMS_P2;Temp;Humidity;BMP_temperature;BMP_pressure;BME280_temperature;BME280_humidity;BME280_pressure;Samples;Min_cycle;Max_cycle;Signal;HPM_P1;HPM_P2
2021/08/29 00:00:55;;;;;;;13.80;5.15;;;16.10;99.90;;;;;;5085695;28;20048;-50
2021/08/29 00:03:21;;;;;;;12.13;5.57;;;16.10;99.90;;;;;;5084189;28;20056;-47
2021/08/29 00:05:47;;;;;;;12.63;5.70;;;16.10;99.90;;;;;;5072416;28;20056;-49
2021/08/29 00:08:14;;;;;;;14.13;6.32;;;16.00;99.90;;;;;;5067952;28;20056;-46
2021/08/29 00:10:40;;;;;;;14.60;5.10;;;16.00;99.90;;;;;;5065742;28;20106;-47
2021/08/29 00:13:06;;;;;;;12.40;5.20;;;16.00;99.90;;;;;;5066887;28;20052;-49
2021/08/29 00:15:32;;;;;;;15.60;6.57;;;16.00;99.90;;;;;;5074509;28;20420;-47
2021/08/29 00:18:01;;;;;;;20.73;9.75;;;16.00;99.90;;;;;;5084602;28;20515;-46
2021/08/29 00:20:27;;;;;;;12.02;4.60;;;16.10;99.90;;;;;;5073587;28;20504;-47
2021/08/29 00:22:54;;;;;;;11.07;5.28;;;16.00;99.90;;;;;;5066303;28;20083;-49
2021/08/29 00:25:20;;;;;;;12.65;5.22;;;16.00;99.90;;;;;;5084111;28;20507;-47
2021/08/29 00:27:46;;;;;;;11.77;5.28;;;16.00;99.90;;;;;;5080095;28;20044;-48
2021/08/29 00:30:16;;;;;;;16.13;6.05;;;16.00;99.90;;;;;;5085400;28;20056;-48
2021/08/29 00:32:44;;;;;;;11.90;5.20;;;16.00;99.90;;;;;;5086643;28;20470;-47
2021/08/29 00:35:11;;;;;;;11.20;5.38;;;16.00;99.90;;;;;;5086350;28;20044;-46
2021/08/29 00:37:37;;;;;;;15.25;6.15;;;16.00;99.90;;;;;;5076070;28;20431;-49
2021/08/29 00:40:04;;;;;;;14.32;5.05;;;16.00;99.90;;;;;;5068048;28;20115;-47
2021/08/29 00:42:30;;;;;;;12.98;4.65;;;16.00;99.90;;;;;;5090912;28;20531;-47
2021/08/29 00:44:57;;;;;;;16.35;5.78;;;16.00;99.90;;;;;;5067823;28;20060;-47
2021/08/29 00:47:26;;;;;;;11.93;5.53;;;15.90;99.90;;;;;;5069290;28;20092;-48
2021/08/29 00:49:55;;;;;;;12.00;5.70;;;15.90;99.90;;;;;;5075720;28;20575;-47
2021/08/29 00:52:21;;;;;;;10.80;5.47;;;16.00;99.90;;;;;;5076847;28;20056;-48
2021/08/29 00:54:47;;;;;;;17.13;5.18;;;15.90;99.90;;;;;;5083082;28;20052;-50
2021/08/29 00:57:17;;;;;;;13.30;5.43;;;16.00;99.90;;;;;;5085884;28;20074;-47
2021/08/29 00:59:55;;;;;;;14.07;5.50;;;15.90;99.90;;;;;;5083818;28;20056;-47
2021/08/29 01:02:30;;;;;;;10.50;5.15;;;15.90;99.90;;;;;;5080961;28;20095;-47
2021/08/29 01:05:05;;;;;;;11.30;5.22;;;15.90;99.90;;;;;;5093752;28;20055;-48
2021/08/29 01:08:00;;;;;;;14.48;5.78;;;15.90;99.90;;;;;;5086512;28;20139;-49
2021/08/29 01:10:43;;;;;;;16.25;5.80;;;15.90;99.90;;;;;;5065193;28;20056;-47
2021/08/29 01:13:40;;;;;;;14.40;5.20;;;15.90;99.90;;;;;;5071768;28;20132;-47
2021/08/29 01:16:15;;;;;;;12.48;5.28;;;15.90;99.90;;;;;;5080922;28;20088;-47
2021/08/29 01:18:56;;;;;;;11.35;5.00;;;15.90;99.90;;;;;;5074635;28;20150;-47
2021/08/29 01:21:35;;;;;;;14.40;5.50;;;15.90;99.90;;;;;;5100756;28;20048;-49
2021/08/29 01:24:09;;;;;;;15.15;5.25;;;15.90;99.90;;;;;;5077857;28;20860;-47
2021/08/29 01:26:56;;;;;;;10.40;5.55;;;15.90;99.90;;;;;;5081110;28;20052;-46
2021/08/29 01:29:28;;;;;;;11.70;5.90;;;15.90;99.90;;;;;;5078583;28;20582;-46
2021/08/29 01:31:58;;;;;;;10.60;5.30;;;15.90;99.90;;;;;;5085261;28;20128;-47
2021/08/29 01:34:27;;;;;;;10.73;5.47;;;15.90;99.90;;;;;;5083576;28;20321;-47
2021/08/29 01:37:20;;;;;;;;;;;15.90;99.90;;;;;;5100568;27;20059;-49
2021/08/29 01:39:52;;;;;;;16.77;5.93;;;15.90;99.90;;;;;;5071267;28;19959;-51
2021/08/29 01:42:28;;;;;;;13.27;5.80;;;15.80;99.90;;;;;;5089656;28;20210;-49
2021/08/29 01:44:55;;;;;;;10.23;5.72;;;15.80;99.90;;;;;;5091700;27;20063;-48
2021/08/29 01:47:22;;;;;;;15.68;6.35;;;15.80;99.90;;;;;;5067567;28;20041;-47
2021/08/29 01:49:49;;;;;;;11.98;5.63;;;15.80;99.90;;;;;;5084240;28;20052;-48
2021/08/29 01:52:16;;;;;;;11.93;5.45;;;15.80;99.90;;;;;;5077964;28;20090;-48
2021/08/29 01:54:59;;;;;;;12.18;5.47;;;15.80;99.90;;;;;;5094668;28;20114;-46
2021/08/29 01:57:42;;;;;;;14.02;6.47;;;15.80;99.90;;;;;;5087999;28;20155;-49
2021/08/29 02:00:18;;;;;;;10.60;5.00;;;15.80;99.90;;;;;;5087077;28;20113;-53
2021/08/29 02:02:44;;;;;;;15.23;5.90;;;15.80;99.90;;;;;;5081211;28;20118;-49
2021/08/29 02:05:13;;;;;;;14.75;5.70;;;15.80;99.90;;;;;;5084746;28;20106;-49
2021/08/29 02:07:48;;;;;;;12.90;5.15;;;15.80;99.90;;;;;;5120689;27;20055;-48
2021/08/29 02:10:26;;;;;;;12.85;5.65;;;15.90;99.90;;;;;;5074103;28;20507;-49
2021/08/29 02:13:08;;;;;;;9.82;5.20;;;15.90;99.90;;;;;;5104244;27;20536;-47
2021/08/29 02:15:40;;;;;;;15.73;6.13;;;15.90;99.90;;;;;;5079029;28;20056;-51
2021/08/29 02:18:11;;;;;;;13.35;5.63;;;15.90;99.90;;;;;;5082959;28;20056;-47
2021/08/29 02:20:43;;;;;;;14.35;5.80;;;15.90;99.90;;;;;;5073411;28;20052;-47
2021/08/29 02:23:16;;;;;;;10.55;5.70;;;15.90;99.90;;;;;;5073501;28;20573;-50
2021/08/29 02:25:49;;;;;;;15.40;5.28;;;15.90;99.90;;;;;;5068320;28;20056;-46
2021/08/29 02:28:25;;;;;;;13.27;5.88;;;15.90;99.90;;;;;;5066784;28;20102;-49
2021/08/29 02:30:54;;;;;;;15.32;5.60;;;15.90;99.90;;;;;;5076617;28;20055;-50
2021/08/29 02:33:25;;;;;;;17.27;5.80;;;15.90;99.90;;;;;;5088475;28;20124;-48
2021/08/29 02:35:56;;;;;;;10.82;5.60;;;15.90;99.90;;;;;;5083683;28;20555;-46
2021/08/29 02:38:27;;;;;;;13.93;5.68;;;15.90;99.90;;;;;;5084401;28;20052;-47
2021/08/29 02:40:56;;;;;;;13.95;5.97;;;15.90;99.90;;;;;;5067236;28;20456;-47
2021/08/29 02:43:28;;;;;;;13.07;5.82;;;15.90;99.90;;;;;;5080667;28;20143;-49
2021/08/29 02:45:56;;;;;;;13.27;6.10;;;15.90;99.90;;;;;;5073240;28;20044;-46
2021/08/29 02:48:27;;;;;;;19.90;6.05;;;15.90;99.90;;;;;;5067519;28;20052;-46
2021/08/29 02:50:59;;;;;;;13.95;5.53;;;15.90;99.90;;;;;;5080775;28;20048;-49
2021/08/29 02:53:26;;;;;;;14.52;6.40;;;15.80;99.90;;;;;;5084135;28;20798;-48
2021/08/29 02:56:00;;;;;;;11.65;5.28;;;15.80;99.90;;;;;;5078080;28;20048;-49
2021/08/29 02:58:32;;;;;;;13.45;5.63;;;15.90;99.90;;;;;;5084492;28;20051;-47
2021/08/29 03:01:14;;;;;;;12.82;5.95;;;15.80;99.90;;;;;;5087513;28;20073;-46
2021/08/29 03:03:55;;;;;;;15.70;5.22;;;15.80;99.90;;;;;;5086461;28;20040;-48
2021/08/29 03:06:24;;;;;;;11.20;4.90;;;15.90;99.90;;;;;;5084114;28;20060;-48
2021/08/29 03:08:55;;;;;;;12.95;5.05;;;15.80;99.90;;;;;;5087025;28;20488;-49
2021/08/29 03:11:25;;;;;;;13.82;5.60;;;15.80;99.90;;;;;;5086268;28;20139;-53
2021/08/29 03:13:52;;;;;;;13.85;5.40;;;15.80;99.90;;;;;;5070439;28;20055;-47
2021/08/29 03:16:19;;;;;;;13.60;4.82;;;15.80;99.90;;;;;;5084273;28;20144;-47
2021/08/29 03:18:49;;;;;;;14.50;5.10;;;15.80;99.90;;;;;;5118086;27;20055;-47
2021/08/29 03:21:35;;;;;;;17.45;4.28;;;15.80;99.90;;;;;;5086102;28;20058;-47
2021/08/29 03:24:03;;;;;;;10.23;4.70;;;15.80;99.90;;;;;;5085071;28;20530;-49
2021/08/29 03:26:29;;;;;;;12.55;4.70;;;15.80;99.90;;;;;;5085056;28;20055;-49
2021/08/29 03:29:03;;;;;;;10.88;4.00;;;15.80;99.90;;;;;;5065737;28;20520;-50
2021/08/29 03:31:31;;;;;;;10.70;4.70;;;15.90;99.90;;;;;;5078085;28;20044;-52
2021/08/29 03:34:00;;;;;;;10.00;4.30;;;15.80;99.90;;;;;;5079912;28;20048;-49
2021/08/29 03:36:30;;;;;;;12.93;5.05;;;15.90;99.90;;;;;;5085995;28;20055;-50
2021/08/29 03:39:07;;;;;;;9.35;4.25;;;15.80;99.90;;;;;;5083687;28;20059;-47
2021/08/29 03:41:42;;;;;;;12.85;4.40;;;15.90;99.90;;;;;;5070941;28;20135;-49
2021/08/29 03:44:14;;;;;;;13.07;4.78;;;15.90;99.90;;;;;;5080161;28;20044;-48
2021/08/29 03:46:45;;;;;;;11.88;4.45;;;15.90;99.90;;;;;;5066036;28;20139;-49
2021/08/29 03:49:43;;;;;;;10.10;4.22;;;15.80;99.90;;;;;;5048303;28;20083;-46
2021/08/29 03:52:18;;;;;;;12.65;4.93;;;15.80;99.90;;;;;;5057278;28;20448;-48
2021/08/29 03:55:03;;;;;;;16.30;4.55;;;15.80;99.90;;;;;;5043334;28;20076;-48
2021/08/29 03:57:33;;;;;;;14.68;3.95;;;15.90;99.90;;;;;;5026907;28;20067;-47
2021/08/29 04:00:00;;;;;;;12.65;4.32;;;15.80;99.90;;;;;;5027828;28;20106;-48
2021/08/29 04:02:29;;;;;;;9.98;3.85;;;15.80;99.90;;;;;;5010629;28;20076;-47
2021/08/29 04:04:55;;;;;;;12.88;4.35;;;15.80;99.90;;;;;;5058516;28;20057;-49
2021/08/29 04:07:23;;;;;;;9.88;4.57;;;15.80;99.90;;;;;;5043668;28;20057;-49
2021/08/29 04:10:10;;;;;;;10.30;4.38;;;15.80;99.90;;;;;;5054302;28;20621;-47
2021/08/29 04:12:45;;;;;;;13.47;4.03;;;15.80;99.90;;;;;;5044597;28;20056;-46
2021/08/29 04:15:33;;;;;;;10.18;4.45;;;15.80;99.90;;;;;;5062803;28;20071;-47
2021/08/29 04:18:03;;;;;;;14.43;3.92;;;15.80;99.90;;;;;;5063092;28;20602;-48
2021/08/29 04:20:33;;;;;;;11.55;4.70;;;15.80;99.90;;;;;;5039401;28;20057;-50
2021/08/29 04:22:59;;;;;;;10.52;3.67;;;15.80;99.90;;;;;;5053180;28;20053;-49
2021/08/29 04:25:26;;;;;;;11.63;4.47;;;15.80;99.90;;;;;;5049065;28;20221;-46
2021/08/29 04:27:57;;;;;;;12.68;4.80;;;15.80;99.90;;;;;;5066663;28;20412;-47
2021/08/29 04:30:23;;;;;;;10.60;4.25;;;15.80;99.90;;;;;;5089813;28;20048;-47
2021/08/29 04:32:52;;;;;;;10.27;4.15;;;15.80;99.90;;;;;;5080289;28;20059;-48
2021/08/29 04:35:38;;;;;;;13.65;4.50;;;15.80;99.90;;;;;;5084920;28;20052;-48
2021/08/29 04:38:06;;;;;;;10.20;4.00;;;15.90;99.90;;;;;;5073987;28;20100;-49
2021/08/29 04:40:34;;;;;;;11.95;4.00;;;15.90;99.90;;;;;;5084395;28;20058;-47
2021/08/29 04:43:02;;;;;;;12.27;4.18;;;15.80;99.90;;;;;;5084196;28;20051;-47
2021/08/29 04:45:32;;;;;;;12.10;3.85;;;15.90;99.90;;;;;;5083136;28;20082;-49
2021/08/29 04:48:06;;;;;;;14.93;4.53;;;15.90;99.90;;;;;;5064101;28;20064;-48
2021/08/29 04:50:33;;;;;;;11.07;4.32;;;15.90;99.90;;;;;;5076237;28;20087;-47
2021/08/29 04:53:00;;;;;;;14.25;4.70;;;15.90;99.90;;;;;;5073522;28;20048;-47
2021/08/29 04:55:27;;;;;;;9.55;4.40;;;15.90;99.90;;;;;;5073602;28;20064;-50
2021/08/29 04:57:53;;;;;;;9.25;3.80;;;15.90;99.90;;;;;;5085949;28;20060;-47
2021/08/29 05:00:20;;;;;;;14.57;4.40;;;15.90;99.90;;;;;;5084079;28;20086;-48
2021/08/29 05:02:48;;;;;;;13.18;5.07;;;15.90;99.90;;;;;;5083494;28;20369;-46
2021/08/29 05:05:20;;;;;;;13.52;4.63;;;15.90;99.90;;;;;;5086544;28;20056;-48
2021/08/29 05:07:46;;;;;;;10.68;4.10;;;15.90;99.90;;;;;;5088298;28;20138;-49
2021/08/29 05:10:12;;;;;;;14.77;4.15;;;15.90;99.90;;;;;;5075472;28;20044;-48
2021/08/29 05:12:56;;;;;;;12.70;5.15;;;15.90;99.90;;;;;;5088764;28;20131;-46
2021/08/29 05:15:23;;;;;;;13.18;4.82;;;15.90;99.90;;;;;;5084560;28;20116;-47
2021/08/29 05:17:49;;;;;;;11.18;5.15;;;15.80;99.90;;;;;;5105869;27;20048;-47
2021/08/29 05:20:15;;;;;;;9.75;3.72;;;15.90;99.90;;;;;;5082015;28;20118;-47
2021/08/29 05:23:04;;;;;;;10.68;5.45;;;15.80;99.90;;;;;;5065634;28;20138;-48
2021/08/29 05:25:51;;;;;;;15.80;4.78;;;15.80;99.90;;;;;;5004298;28;20052;-49
2021/08/29 05:28:22;;;;;;;11.52;4.50;;;15.80;99.90;;;;;;5010143;28;20523;-48
2021/08/29 05:30:49;;;;;;;12.55;4.57;;;15.70;99.90;;;;;;4989461;28;20413;-49
2021/08/29 05:33:16;;;;;;;15.70;4.63;;;15.70;99.90;;;;;;5006908;28;20248;-50
2021/08/29 05:35:45;;;;;;;17.95;5.30;;;15.60;99.90;;;;;;5018887;28;20050;-46
2021/08/29 05:38:11;;;;;;;14.88;5.55;;;15.60;99.90;;;;;;4970585;28;20151;-47
2021/08/29 05:41:01;;;;;;;12.73;5.32;;;15.60;99.90;;;;;;4985787;28;20062;-47
2021/08/29 05:43:46;;;;;;;11.55;5.00;;;15.60;99.90;;;;;;5005118;28;20049;-48
2021/08/29 05:46:28;;;;;;;12.60;4.82;;;15.50;99.90;;;;;;5004134;28;20096;-47
2021/08/29 05:48:55;;;;;;;13.75;4.75;;;15.40;99.90;;;;;;5005673;28;20064;-47
2021/08/29 05:51:22;;;;;;;11.07;4.82;;;15.40;99.90;;;;;;4998962;28;20081;-48
2021/08/29 05:53:49;;;;;;;12.98;5.18;;;15.40;99.90;;;;;;5005073;28;20049;-47
2021/08/29 05:56:15;;;;;;;17.17;5.13;;;15.40;99.90;;;;;;5003727;28;20112;-48
2021/08/29 05:58:41;;;;;;;14.75;5.20;;;15.30;99.90;;;;;;4994769;28;20061;-48
2021/08/29 06:01:12;;;;;;;13.93;5.40;;;15.30;99.90;;;;;;4989718;28;20050;-49
2021/08/29 06:03:40;;;;;;;8.27;4.63;;;15.30;99.90;;;;;;5051422;28;20072;-51
2021/08/29 06:06:09;;;;;;;11.88;4.15;;;15.20;99.90;;;;;;5073023;28;20044;-49
2021/08/29 06:08:43;;;;;;;13.98;5.07;;;15.20;99.90;;;;;;5087167;28;20055;-50
2021/08/29 06:11:09;;;;;;;11.43;4.20;;;15.20;99.90;;;;;;5084986;28;20055;-48
2021/08/29 06:13:37;;;;;;;13.45;4.80;;;15.20;99.90;;;;;;5086216;28;20098;-52
2021/08/29 06:16:03;;;;;;;11.00;5.05;;;15.20;99.90;;;;;;5087877;28;20451;-50
2021/08/29 06:18:30;;;;;;;11.30;4.93;;;15.30;99.90;;;;;;5111524;27;21804;-48
2021/08/29 06:20:57;;;;;;;13.77;5.20;;;15.30;99.90;;;;;;5082708;28;20666;-50
2021/08/29 06:23:23;;;;;;;20.90;12.13;;;15.30;99.90;;;;;;5052356;28;20509;-50
2021/08/29 06:25:55;;;;;;;12.18;4.63;;;15.40;99.90;;;;;;5084793;28;20056;-49
2021/08/29 06:28:57;;;;;;;17.45;6.22;;;15.40;99.90;;;;;;5026077;28;20139;-50
2021/08/29 06:31:46;;;;;;;15.88;6.13;;;15.40;99.90;;;;;;5025721;28;20657;-49
2021/08/29 06:34:32;;;;;;;28.15;16.08;;;15.40;99.90;;;;;;5006608;28;20180;-51
2021/08/29 06:37:06;;;;;;;16.67;5.50;;;15.40;99.90;;;;;;5008143;28;20050;-51
2021/08/29 06:39:32;;;;;;;16.63;7.95;;;15.40;99.90;;;;;;5024129;28;20438;-53
2021/08/29 06:41:58;;;;;;;21.55;15.25;;;15.40;99.90;;;;;;5010755;28;20053;-51
2021/08/29 06:44:25;;;;;;;12.13;5.22;;;15.40;99.90;;;;;;5024753;28;20053;-51
2021/08/29 06:47:00;;;;;;;13.73;6.35;;;15.40;99.90;;;;;;5008455;28;20061;-54
2021/08/29 06:49:56;;;;;;;47.83;35.90;;;15.40;99.90;;;;;;4985964;28;20604;-54
2021/08/29 06:52:41;;;;;;;18.17;9.65;;;15.50;99.90;;;;;;4984980;28;20054;-56
2021/08/29 06:55:26;;;;;;;31.38;20.60;;;15.40;99.90;;;;;;4985257;28;20050;-56
2021/08/29 06:58:10;;;;;;;23.13;12.10;;;15.40;99.90;;;;;;4986170;28;20057;-57
2021/08/29 07:00:41;;;;;;;32.53;25.20;;;15.40;99.90;;;;;;4966404;28;20170;-57
2021/08/29 07:03:14;;;;;;;32.55;23.63;;;15.40;99.90;;;;;;4958089;28;20135;-57
2021/08/29 07:05:41;;;;;;;28.20;19.73;;;15.40;99.90;;;;;;4949380;28;20601;-58
2021/08/29 07:08:42;;;;;;;16.30;5.63;;;15.40;99.90;;;;;;4936298;28;20063;-55
2021/08/29 07:11:10;;;;;;;13.52;5.68;;;15.50;99.90;;;;;;4961852;28;20433;-58
2021/08/29 07:14:21;;;;;;;23.25;8.20;;;15.50;99.90;;;;;;4909304;29;20079;-59
2021/08/29 07:16:56;;;;;;;31.45;20.60;;;15.50;99.90;;;;;;4912639;29;20077;-58
2021/08/29 07:19:32;;;;;;;12.07;5.38;;;15.60;99.90;;;;;;4927725;29;20055;-56
2021/08/29 07:22:26;;;;;;;17.02;6.32;;;15.60;99.90;;;;;;4926898;29;20051;-57
2021/08/29 07:25:11;;;;;;;14.60;4.60;;;15.60;99.90;;;;;;4926522;28;20059;-56
2021/08/29 07:28:02;;;;;;;15.50;4.53;;;15.60;99.90;;;;;;5004379;28;20060;-56
2021/08/29 07:30:48;;;;;;;15.05;4.50;;;15.60;99.90;;;;;;5002911;28;20054;-55
2021/08/29 07:33:18;;;;;;;14.38;6.65;;;15.60;99.90;;;;;;4969101;28;20056;-56
2021/08/29 07:35:55;;;;;;;14.43;4.55;;;15.60;99.90;;;;;;4999581;28;20050;-56
2021/08/29 07:38:37;;;;;;;14.30;5.75;;;15.60;99.90;;;;;;5001606;28;20165;-56
2021/08/29 07:41:04;;;;;;;14.70;4.95;;;15.60;99.90;;;;;;5000833;28;20169;-56
2021/08/29 07:43:32;;;;;;;14.13;4.95;;;15.70;99.90;;;;;;4999710;28;20050;-57
2021/08/29 07:46:05;;;;;;;13.55;6.50;;;15.70;99.90;;;;;;5055243;28;20137;-55
2021/08/29 07:48:32;;;;;;;13.13;7.22;;;15.70;99.90;;;;;;5065396;28;20081;-56
2021/08/29 07:51:01;;;;;;;11.18;7.38;;;15.70;99.90;;;;;;5068149;28;20086;-57
2021/08/29 07:53:39;;;;;;;14.80;8.63;;;15.70;99.90;;;;;;5085214;28;20060;-57
2021/08/29 07:56:43;;;;;;;10.15;4.97;;;15.70;99.90;;;;;;5043554;28;20559;-57
2021/08/29 07:59:10;;;;;;;8.95;3.60;;;15.70;99.90;;;;;;5026616;28;20901;-57
2021/08/29 08:01:41;;;;;;;9.13;3.88;;;15.80;99.90;;;;;;5042981;28;20049;-57
2021/08/29 08:04:25;;;;;;;8.23;3.55;;;15.80;99.90;;;;;;5043188;28;20091;-57
2021/08/29 08:07:18;;;;;;;13.90;8.40;;;15.80;99.90;;;;;;5042115;28;20056;-57
2021/08/29 08:10:04;;;;;;;11.95;8.40;;;15.80;99.90;;;;;;5043232;28;20049;-57
2021/08/29 08:12:49;;;;;;;10.07;4.60;;;15.80;99.90;;;;;;5042936;28;20045;-57
2021/08/29 08:15:15;;;;;;;11.00;8.20;;;15.90;99.90;;;;;;5043929;28;20049;-57
2021/08/29 08:17:43;;;;;;;12.57;4.85;;;16.00;99.90;;;;;;5026419;28;20140;-57
2021/08/29 08:20:10;;;;;;;16.55;8.05;;;16.00;99.90;;;;;;5043001;28;20087;-57
2021/08/29 08:22:44;;;;;;;14.60;6.80;;;16.10;99.90;;;;;;5026608;28;20493;-57
2021/08/29 08:25:27;;;;;;;14.05;5.47;;;16.30;99.90;;;;;;5042997;28;20163;-56
2021/08/29 08:28:12;;;;;;;15.13;6.13;;;16.30;99.90;;;;;;5076553;28;20119;-57
2021/08/29 08:30:57;;;;;;;14.52;6.00;;;16.30;99.90;;;;;;5085974;28;20052;-57
2021/08/29 08:33:59;;;;;;;13.93;5.70;;;16.40;99.90;;;;;;5042674;28;20056;-57
2021/08/29 08:37:02;;;;;;;14.55;6.97;;;16.50;99.90;;;;;;5042382;28;20092;-57
2021/08/29 08:39:45;;;;;;;10.52;6.00;;;16.60;99.90;;;;;;5058919;28;20059;-57
2021/08/29 08:42:22;;;;;;;11.93;7.30;;;16.70;99.90;;;;;;5041768;28;20045;-57
2021/08/29 08:45:10;;;;;;;15.25;5.50;;;16.70;99.90;;;;;;5042086;28;20099;-57
2021/08/29 08:47:59;;;;;;;13.45;6.20;;;16.70;99.90;;;;;;5042251;28;20145;-58
2021/08/29 08:50:49;;;;;;;18.50;8.90;;;16.70;99.90;;;;;;5042187;28;20052;-57
2021/08/29 08:53:42;;;;;;;15.30;6.03;;;16.70;99.90;;;;;;5022355;28;20415;-57
2021/08/29 08:56:27;;;;;;;13.82;6.45;;;16.70;99.90;;;;;;5022354;28;20567;-58
2021/08/29 08:59:15;;;;;;;13.10;6.63;;;16.70;99.90;;;;;;5022121;28;20156;-58
2021/08/29 09:02:02;;;;;;;18.58;9.93;;;16.70;99.90;;;;;;5005856;28;20140;-57
2021/08/29 09:04:59;;;;;;;16.02;7.15;;;16.70;99.90;;;;;;5022291;28;20049;-58
2021/08/29 09:07:31;;;;;;;13.60;6.32;;;16.70;99.90;;;;;;4994663;28;20067;-57
2021/08/29 09:10:00;;;;;;;15.98;8.73;;;16.60;99.90;;;;;;5025480;28;20153;-58
2021/08/29 09:12:26;;;;;;;12.18;6.05;;;16.60;99.90;;;;;;5025162;28;20053;-58
2021/08/29 09:14:57;;;;;;;9.00;5.40;;;16.50;99.90;;;;;;5025488;28;20528;-58
2021/08/29 09:17:39;;;;;;;11.90;5.22;;;16.60;99.90;;;;;;5025209;28;20057;-58
2021/08/29 09:20:23;;;;;;;12.13;7.15;;;16.60;99.90;;;;;;5025714;28;20057;-58
2021/08/29 09:22:58;;;;;;;14.00;10.75;;;16.70;99.90;;;;;;5025560;28;20144;-57
2021/08/29 09:25:44;;;;;;;12.50;6.25;;;16.70;99.90;;;;;;5043373;28;20163;-58
2021/08/29 09:28:38;;;;;;;12.90;6.78;;;16.80;99.90;;;;;;5025610;28;20060;-58
2021/08/29 09:31:10;;;;;;;13.77;6.38;;;16.90;99.90;;;;;;5050621;28;20660;-57
2021/08/29 09:33:37;;;;;;;10.55;4.97;;;16.90;99.90;;;;;;5064187;28;20056;-57
2021/08/29 09:36:12;;;;;;;9.98;5.28;;;16.90;99.90;;;;;;5046562;28;20413;-58
2021/08/29 09:39:18;;;;;;;11.52;6.03;;;17.00;99.90;;;;;;5064343;28;20075;-57
2021/08/29 09:42:03;;;;;;;11.23;6.72;;;16.90;99.90;;;;;;5064774;28;20063;-58
2021/08/29 09:44:41;;;;;;;11.30;4.45;;;16.90;99.90;;;;;;5065282;28;20056;-58
2021/08/29 09:47:32;;;;;;;10.75;4.70;;;16.90;99.90;;;;;;5064879;28;20060;-58
2021/08/29 09:50:36;;;;;;;10.63;4.45;;;16.90;99.90;;;;;;5055270;28;20135;-58
2021/08/29 09:53:15;;;;;;;10.85;5.22;;;16.90;99.90;;;;;;5068114;28;20121;-58
2021/08/29 09:56:23;;;;;;;7.97;5.35;;;17.10;99.90;;;;;;5067765;28;20091;-58
2021/08/29 09:59:10;;;;;;;8.38;5.00;;;17.00;99.90;;;;;;5069012;28;20057;-59
2021/08/29 10:02:05;;;;;;;8.55;4.00;;;17.20;99.90;;;;;;5084464;28;20048;-58
2021/08/29 10:04:45;;;;;;;8.77;4.40;;;17.20;99.90;;;;;;5067576;28;20056;-57
2021/08/29 10:07:15;;;;;;;9.02;4.88;;;17.20;99.90;;;;;;5083733;28;20437;-58
2021/08/29 10:09:43;;;;;;;10.73;4.60;;;17.10;99.90;;;;;;5066420;28;20576;-57
2021/08/29 10:12:22;;;;;;;11.60;4.53;;;17.20;99.90;;;;;;5066946;28;20109;-58
2021/08/29 10:14:49;;;;;;;10.43;4.47;;;17.20;99.90;;;;;;5083784;28;20138;-57
2021/08/29 10:17:40;;;;;;;8.35;5.32;;;17.30;99.90;;;;;;5068204;28;20600;-58
2021/08/29 10:20:25;;;;;;;11.07;5.57;;;17.30;99.90;;;;;;5068667;28;20056;-58
2021/08/29 10:23:06;;;;;;;12.15;6.40;;;17.40;99.90;;;;;;5068193;28;20432;-58
2021/08/29 10:25:38;;;;;;;9.95;5.63;;;17.30;99.90;;;;;;5083715;28;20084;-58
2021/08/29 10:28:31;;;;;;;9.02;4.63;;;17.30;99.90;;;;;;5083079;28;20060;-59
2021/08/29 10:31:11;;;;;;;11.90;7.45;;;17.30;99.90;;;;;;5066581;28;20053;-58
2021/08/29 10:34:19;;;;;;;10.07;7.90;;;17.30;99.90;;;;;;5061649;28;20080;-58
2021/08/29 10:36:49;;;;;;;10.63;6.00;;;17.10;99.90;;;;;;5066370;28;20052;-58
2021/08/29 10:39:37;;;;;;;10.52;5.38;;;17.20;99.90;;;;;;5067739;28;20367;-58
2021/08/29 10:42:20;;;;;;;10.57;6.40;;;17.10;99.90;;;;;;5082751;28;20513;-57
2021/08/29 10:45:11;;;;;;;8.45;4.13;;;17.20;99.90;;;;;;5085710;28;20064;-58
2021/08/29 10:48:09;;;;;;;9.25;5.70;;;17.20;99.90;;;;;;5004990;28;20519;-58
2021/08/29 10:50:56;;;;;;;11.40;4.88;;;17.20;99.90;;;;;;5004551;28;20061;-58
2021/08/29 10:53:31;;;;;;;10.57;5.45;;;17.20;99.90;;;;;;4988502;28;20522;-59
2021/08/29 10:56:18;;;;;;;12.20;6.00;;;17.20;99.90;;;;;;4988527;28;20053;-58
2021/08/29 10:59:13;;;;;;;7.55;3.95;;;17.20;99.90;;;;;;5004260;28;20050;-58
2021/08/29 11:01:55;;;;;;;9.45;3.97;;;17.20;99.90;;;;;;5004128;28;20352;-59
2021/08/29 11:04:53;;;;;;;9.80;4.78;;;17.30;99.90;;;;;;5003809;28;20498;-58
2021/08/29 11:07:52;;;;;;;7.07;5.00;;;17.30;99.90;;;;;;4988202;28;20068;-59
2021/08/29 11:10:38;;;;;;;12.60;4.50;;;17.40;99.90;;;;;;5003835;28;20054;-59
2021/08/29 11:13:34;;;;;;;8.48;3.83;;;17.50;99.90;;;;;;4988279;28;20436;-59
2021/08/29 11:16:11;;;;;;;9.40;4.20;;;17.60;99.90;;;;;;5004479;28;20050;-59
2021/08/29 11:19:01;;;;;;;8.48;4.07;;;17.60;99.90;;;;;;5003252;28;20073;-58
2021/08/29 11:21:38;;;;;;;10.07;4.93;;;17.50;99.90;;;;;;5000275;28;20062;-58
2021/08/29 11:25:01;;;;;;;8.43;3.90;;;17.50;99.90;;;;;;4990000;28;20089;-59
2021/08/29 11:27:35;;;;;;;7.00;3.80;;;17.40;99.90;;;;;;5024451;28;20053;-60
2021/08/29 11:30:35;;;;;;;7.80;3.92;;;17.40;99.90;;;;;;5023194;28;20419;-59
2021/08/29 11:33:09;;;;;;;7.72;3.88;;;17.40;99.90;;;;;;5022958;28;20497;-58
2021/08/29 11:35:52;;;;;;;9.57;4.07;;;17.30;99.90;;;;;;5023769;28;20057;-58
2021/08/29 11:38:38;;;;;;;7.60;4.82;;;17.40;99.90;;;;;;5008860;28;20060;-58
2021/08/29 11:41:21;;;;;;;8.05;3.67;;;17.40;99.90;;;;;;5023387;28;20295;-58
2021/08/29 11:43:52;;;;;;;5.93;3.80;;;17.50;99.90;;;;;;5023808;28;20139;-58
2021/08/29 11:46:27;;;;;;;6.60;4.45;;;17.50;99.90;;;;;;5023493;28;20465;-58
2021/08/29 11:49:07;;;;;;;;;;;17.60;99.90;;;;;;5040458;28;20128;-55
2021/08/29 11:51:39;;;;;;;9.73;8.00;;;17.80;99.90;;;;;;5013971;28;20453;-55
2021/08/29 11:54:19;;;;;;;13.13;11.18;;;17.90;99.90;;;;;;5023277;28;20057;-57
2021/08/29 11:56:48;;;;;;;36.50;32.40;;;18.00;99.90;;;;;;5084618;28;20052;-55
2021/08/29 11:59:34;;;;;;;43.53;38.95;;;18.20;99.90;;;;;;5084697;28;20621;-56
2021/08/29 12:02:42;;;;;;;38.78;34.65;;;18.30;99.90;;;;;;5080575;28;20063;-55
2021/08/29 12:05:12;;;;;;;10.43;6.07;;;18.40;99.90;;;;;;5074907;28;20090;-61
2021/08/29 12:08:13;;;;;;;73.10;65.80;;;18.40;99.90;;;;;;5075346;28;20044;-61
2021/08/29 12:10:59;;;;;;;43.70;39.13;;;18.40;99.90;;;;;;5081822;28;20077;-61
2021/08/29 12:13:44;;;;;;;6.25;3.95;;;18.50;99.90;;;;;;5083894;28;20060;-62
2021/08/29 12:16:38;;;;;;;39.10;34.95;;;18.40;99.90;;;;;;4965871;28;20062;-62
2021/08/29 12:19:13;;;;;;;7.32;3.92;;;18.30;99.90;;;;;;4945367;28;20050;-63
2021/08/29 12:21:59;;;;;;;16.20;13.45;;;18.30;99.90;;;;;;4963054;28;20039;-62
2021/08/29 12:25:01;;;;;;;24.88;20.92;;;18.30;99.90;;;;;;4964769;28;20054;-65
2021/08/29 12:27:28;;;;;;;12.95;9.98;;;18.20;99.90;;;;;;4905797;29;20435;-64
2021/08/29 12:29:59;;;;;;;9.77;6.20;;;18.10;99.90;;;;;;4929181;28;20050;-62
2021/08/29 12:32:28;;;;;;;19.02;15.30;;;18.10;99.90;;;;;;4947643;28;20105;-61
2021/08/29 12:34:54;;;;;;;19.63;17.02;;;18.00;99.90;;;;;;4947711;28;20058;-60
2021/08/29 12:37:23;;;;;;;10.40;6.50;;;18.00;99.90;;;;;;4964110;28;20086;-61
2021/08/29 12:40:10;;;;;;;34.63;27.73;;;18.10;99.90;;;;;;4946202;28;20059;-60
2021/08/29 12:42:41;;;;;;;15.35;10.02;;;18.30;99.90;;;;;;4942956;28;20054;-60
2021/08/29 12:45:17;;;;;;;22.15;18.38;;;18.60;99.90;;;;;;4913763;29;20049;-60
2021/08/29 12:47:47;;;;;;;6.95;4.07;;;18.90;99.90;;;;;;4944857;29;20132;-59
2021/08/29 12:50:17;;;;;;;17.70;12.55;;;18.90;99.90;;;;;;4945411;29;20102;-59
2021/08/29 12:52:48;;;;;;;66.93;59.78;;;18.90;99.90;;;;;;4960054;28;20050;-58
2021/08/29 12:55:15;;;;;;;17.80;13.65;;;18.90;99.90;;;;;;5001636;28;20042;-59
2021/08/29 12:57:43;;;;;;;11.02;8.40;;;18.90;99.90;;;;;;4994349;28;20128;-59
2021/08/29 13:00:12;;;;;;;26.23;21.17;;;18.90;99.90;;;;;;5074827;28;20451;-59
2021/08/29 13:02:41;;;;;;;42.75;38.20;;;18.80;99.90;;;;;;5072825;28;20127;-58
2021/08/29 13:05:11;;;;;;;33.83;30.00;;;18.80;99.90;;;;;;5082658;28;20117;-61
2021/08/29 13:07:47;;;;;;;45.60;39.25;;;18.60;99.90;;;;;;5085516;28;20055;-59
2021/08/29 13:10:15;;;;;;;27.75;23.48;;;18.50;99.90;;;;;;5086579;28;20079;-59
2021/08/29 13:12:41;;;;;;;52.38;46.95;;;18.50;99.90;;;;;;5078700;28;20101;-61
2021/08/29 13:15:08;;;;;;;44.28;38.03;;;18.60;99.90;;;;;;5077660;28;20164;-60
2021/08/29 13:17:47;;;;;;;32.70;28.70;;;18.60;99.90;;;;;;5085589;28;20052;-58
2021/08/29 13:20:13;;;;;;;57.35;51.30;;;18.50;99.90;;;;;;5085291;28;20052;-61
2021/08/29 13:22:45;;;;;;;27.80;23.40;;;18.40;99.90;;;;;;5083864;28;20059;-58
2021/08/29 13:25:17;;;;;;;16.00;11.13;;;18.30;99.90;;;;;;5091112;28;20043;-61